createdAt,value
2017-09-20T00:00:09.952Z,47.40
2017-09-20T00:02:10.913Z,46.83
2017-09-20T00:04:11.873Z,46.90
2017-09-20T00:06:12.844Z,49.17
2017-09-20T00:08:13.815Z,47.87
2017-09-20T00:10:14.769Z,48.30
2017-09-20T00:12:15.733Z,49.00
2017-09-20T00:14:16.695Z,47.03
2017-09-20T00:16:17.668Z,50.07
2017-09-20T00:18:19.379Z,52.70
2017-09-20T00:20:20.328Z,50.23
2017-09-20T00:22:21.292Z,49.40
2017-09-20T00:24:22.236Z,49.73
2017-09-20T00:26:23.274Z,47.23
2017-09-20T00:28:24.240Z,49.13
2017-09-20T00:30:25.941Z,48.97
2017-09-20T00:32:26.900Z,47.10
2017-09-20T00:34:27.862Z,48.57
2017-09-20T00:36:28.816Z,48.60
2017-09-20T00:38:29.777Z,47.53
2017-09-20T00:40:30.763Z,46.50
2017-09-20T00:42:31.719Z,49.00
2017-09-20T00:44:39.469Z,48.30
2017-09-20T00:46:40.438Z,46.90
2017-09-20T00:48:42.136Z,46.63
2017-09-20T00:50:43.095Z,47.27
2017-09-20T00:52:44.068Z,48.20
2017-09-20T00:54:45.021Z,47.20
2017-09-20T00:56:45.991Z,45.70
2017-09-20T00:58:47.712Z,43.97
2017-09-20T01:00:48.700Z,45.33
2017-09-20T01:02:50.401Z,45.00
2017-09-20T01:04:51.368Z,45.23
2017-09-20T01:06:52.350Z,45.00
2017-09-20T01:08:54.068Z,45.40
2017-09-20T01:10:55.020Z,41.37
2017-09-20T01:12:55.985Z,41.40
2017-09-20T01:14:56.945Z,47.90
2017-09-20T01:16:58.650Z,42.07
2017-09-20T01:18:59.608Z,41.37
2017-09-20T01:21:13.117Z,40.40
2017-09-20T01:23:28.413Z,37.23
2017-09-20T01:25:29.380Z,36.70
2017-09-20T01:27:30.354Z,38.07
2017-09-20T01:29:31.368Z,38.00
2017-09-20T01:31:32.333Z,38.80
2017-09-20T01:33:33.348Z,38.50
2017-09-20T01:35:34.296Z,38.33
2017-09-20T01:37:35.260Z,35.80
2017-09-20T01:39:36.253Z,37.17
2017-09-20T01:41:37.965Z,36.00
2017-09-20T01:43:38.921Z,38.70
2017-09-20T01:45:39.893Z,35.80
2017-09-20T01:47:40.854Z,37.00
2017-09-20T01:49:42.576Z,36.23
2017-09-20T01:51:43.557Z,33.13
2017-09-20T01:53:44.492Z,36.63
2017-09-20T01:55:45.469Z,34.70
2017-09-20T01:57:46.515Z,35.97
2017-09-20T01:59:48.329Z,36.27
2017-09-20T02:01:49.293Z,34.77
2017-09-20T02:03:50.253Z,34.87
2017-09-20T02:05:51.207Z,32.30
2017-09-20T02:07:52.913Z,35.87
2017-09-20T02:09:53.881Z,35.27
2017-09-20T02:11:54.857Z,33.57
2017-09-20T02:13:56.577Z,34.87
2017-09-20T02:15:57.542Z,36.40
2017-09-20T02:17:58.521Z,34.47
2017-09-20T02:20:00.245Z,33.97
2017-09-20T02:22:01.204Z,35.60
2017-09-20T02:24:02.153Z,34.80
2017-09-20T02:26:03.121Z,32.83
2017-09-20T02:28:04.827Z,33.90
2017-09-20T02:30:05.793Z,32.80
2017-09-20T02:32:06.762Z,30.47
2017-09-20T02:34:07.748Z,34.20
2017-09-20T02:36:08.704Z,31.40
2017-09-20T02:38:09.662Z,31.20
2017-09-20T02:40:10.650Z,32.70
2017-09-20T02:42:11.645Z,32.67
2017-09-20T02:44:12.616Z,30.97
2017-09-20T02:46:13.608Z,34.70
2017-09-20T02:48:15.304Z,31.20
2017-09-20T02:50:16.281Z,32.63
2017-09-20T02:52:17.251Z,32.53
2017-09-20T02:54:18.957Z,35.00
2017-09-20T02:56:19.918Z,34.03
2017-09-20T02:58:20.884Z,32.67
2017-09-20T03:00:21.869Z,32.90
2017-09-20T03:02:22.833Z,32.80
2017-09-20T03:04:23.789Z,34.20
2017-09-20T03:06:24.772Z,33.47
2017-09-20T03:08:25.741Z,33.03
2017-09-20T03:10:27.444Z,33.77
2017-09-20T03:12:28.401Z,32.30
2017-09-20T03:14:29.356Z,34.57
2017-09-20T03:16:30.325Z,32.33
2017-09-20T03:18:31.297Z,32.63
2017-09-20T03:20:32.266Z,31.97
2017-09-20T03:22:33.224Z,32.10
2017-09-20T03:24:34.180Z,32.07
2017-09-20T03:26:35.172Z,32.57
2017-09-20T03:28:36.161Z,33.07
2017-09-20T03:30:37.111Z,33.50
2017-09-20T03:32:38.088Z,32.23
2017-09-20T03:34:39.042Z,31.23
2017-09-20T03:36:40.746Z,33.20
2017-09-20T03:38:41.719Z,31.87
2017-09-20T03:40:42.681Z,30.90
2017-09-20T03:42:43.649Z,30.07
2017-09-20T03:44:45.340Z,30.93
2017-09-20T03:46:46.294Z,33.70
2017-09-20T03:48:47.261Z,30.63
2017-09-20T03:50:48.225Z,32.43
2017-09-20T03:52:49.937Z,31.70
2017-09-20T03:54:50.893Z,30.63
2017-09-20T03:56:51.840Z,31.97
2017-09-20T03:58:52.828Z,29.07
2017-09-20T04:00:53.794Z,29.87
2017-09-20T04:02:55.500Z,29.50
2017-09-20T04:04:56.452Z,31.03
2017-09-20T04:06:57.413Z,28.40
2017-09-20T04:08:58.386Z,29.70
2017-09-20T04:11:00.084Z,30.07
2017-09-20T04:13:01.070Z,29.80
2017-09-20T04:15:02.069Z,29.03
2017-09-20T04:17:03.035Z,28.40
2017-09-20T04:19:04.005Z,29.53
2017-09-20T04:21:04.979Z,28.17
2017-09-20T04:23:05.948Z,28.13
2017-09-20T04:25:07.653Z,31.27
2017-09-20T04:27:08.616Z,28.60
2017-09-20T04:29:10.329Z,29.83
2017-09-20T04:31:11.283Z,28.17
2017-09-20T04:33:12.274Z,28.07
2017-09-20T04:35:13.249Z,28.90
2017-09-20T04:37:14.973Z,29.00
2017-09-20T04:39:15.955Z,27.70
2017-09-20T04:41:17.656Z,28.90
2017-09-20T04:43:18.633Z,28.17
2017-09-20T04:45:19.604Z,22.87
2017-09-20T04:47:20.566Z,23.60
2017-09-20T04:49:22.276Z,23.93
2017-09-20T04:51:23.319Z,25.10
2017-09-20T04:53:24.279Z,22.87
2017-09-20T04:55:25.271Z,24.10
2017-09-20T04:57:26.982Z,25.20
2017-09-20T04:59:27.950Z,23.53
2017-09-20T05:01:28.944Z,22.93
2017-09-20T05:03:29.913Z,23.67
2017-09-20T05:05:30.885Z,23.33
2017-09-20T05:07:31.848Z,22.63
2017-09-20T05:09:33.556Z,22.73
2017-09-20T05:11:34.513Z,24.97
2017-09-20T05:13:35.480Z,21.10
2017-09-20T05:15:36.453Z,24.27
2017-09-20T05:17:37.448Z,22.97
2017-09-20T05:19:38.400Z,23.83
2017-09-20T05:21:39.376Z,22.83
2017-09-20T05:23:40.338Z,21.90
2017-09-20T05:25:42.070Z,22.70
2017-09-20T05:27:43.044Z,23.00
2017-09-20T05:29:44.021Z,24.47
2017-09-20T05:31:44.992Z,22.57
2017-09-20T05:33:46.006Z,24.20
2017-09-20T05:35:47.709Z,22.23
2017-09-20T05:37:48.684Z,22.40
2017-09-20T05:39:49.676Z,23.23
2017-09-20T05:41:50.648Z,22.20
2017-09-20T05:43:51.592Z,22.03
2017-09-20T05:45:52.594Z,23.57
2017-09-20T05:47:54.305Z,23.47
2017-09-20T05:49:55.272Z,23.33
2017-09-20T05:51:56.248Z,23.13
2017-09-20T05:53:57.958Z,23.97
2017-09-20T05:55:58.916Z,23.42
2017-09-20T05:57:59.883Z,22.27
2017-09-20T06:00:00.841Z,22.13
2017-09-20T06:02:02.554Z,20.90
2017-09-20T06:04:03.518Z,24.13
2017-09-20T06:06:04.495Z,21.97
2017-09-20T06:08:06.197Z,20.60
2017-09-20T06:10:07.178Z,22.57
2017-09-20T06:12:08.153Z,20.17
2017-09-20T06:14:09.845Z,22.27
2017-09-20T06:16:10.808Z,21.63
2017-09-20T06:18:11.777Z,22.80
2017-09-20T06:20:12.733Z,21.87
2017-09-20T06:22:13.708Z,20.70
2017-09-20T06:24:15.397Z,22.93
2017-09-20T06:26:16.368Z,21.87
2017-09-20T06:28:17.347Z,22.40
2017-09-20T06:30:19.049Z,21.30
2017-09-20T06:32:20.022Z,23.57
2017-09-20T06:34:20.982Z,23.87
2017-09-20T06:36:21.933Z,22.60
2017-09-20T06:38:22.901Z,22.00
2017-09-20T06:40:24.614Z,21.00
2017-09-20T06:42:25.570Z,22.00
2017-09-20T06:44:26.548Z,23.33
2017-09-20T06:46:28.253Z,22.37
2017-09-20T06:48:29.222Z,21.20
2017-09-20T06:50:30.210Z,22.17
2017-09-20T06:52:31.901Z,22.37
2017-09-20T06:54:32.865Z,21.97
2017-09-20T06:56:33.840Z,24.00
2017-09-20T06:58:34.817Z,26.40
2017-09-20T07:00:36.534Z,25.43
2017-09-20T07:02:37.504Z,26.07
2017-09-20T07:04:38.460Z,25.87
2017-09-20T07:06:40.177Z,25.17
2017-09-20T07:08:41.131Z,26.60
2017-09-20T07:10:42.104Z,27.07
2017-09-20T07:12:43.056Z,27.27
2017-09-20T07:14:44.026Z,27.93
2017-09-20T07:16:45.734Z,26.77
2017-09-20T07:18:46.701Z,25.97
2017-09-20T07:20:47.669Z,27.80
2017-09-20T07:22:49.361Z,25.33
2017-09-20T07:24:50.340Z,27.60
2017-09-20T07:26:51.307Z,26.97
2017-09-20T07:28:53.027Z,25.80
2017-09-20T07:30:53.982Z,28.10
2017-09-20T07:32:54.958Z,27.23
2017-09-20T07:34:55.925Z,27.70
2017-09-20T07:36:57.636Z,27.23
2017-09-20T07:38:58.593Z,27.30
2017-09-20T07:40:59.565Z,27.40
2017-09-20T07:43:00.541Z,26.50
2017-09-20T07:45:01.497Z,25.60
2017-09-20T07:47:02.448Z,22.40
2017-09-20T07:49:03.424Z,24.77
2017-09-20T07:51:05.173Z,24.53
2017-09-20T07:53:06.133Z,25.40
2017-09-20T07:55:07.098Z,26.10
2017-09-20T07:57:08.058Z,21.67
2017-09-20T07:59:09.016Z,22.40
2017-09-20T08:01:10.704Z,22.63
2017-09-20T08:03:11.668Z,21.87
2017-09-20T08:05:12.620Z,19.83
2017-09-20T08:07:13.585Z,18.00
2017-09-20T08:09:14.557Z,19.20
2017-09-20T08:11:16.248Z,19.80
2017-09-20T08:13:17.216Z,16.73
2017-09-20T08:15:18.164Z,18.40
2017-09-20T08:17:19.121Z,16.87
2017-09-20T08:19:20.104Z,15.80
2017-09-20T08:21:21.797Z,16.40
2017-09-20T08:23:22.761Z,15.90
2017-09-20T08:25:23.728Z,15.63
2017-09-20T08:27:24.686Z,15.00
2017-09-20T08:29:25.648Z,13.93
2017-09-20T08:31:27.349Z,13.93
2017-09-20T08:33:28.318Z,12.77
2017-09-20T08:35:29.279Z,15.37
2017-09-20T08:37:30.221Z,14.67
2017-09-20T08:39:31.180Z,13.90
2017-09-20T08:41:32.116Z,16.40
2017-09-20T08:43:33.079Z,14.50
2017-09-20T08:45:34.034Z,15.03
2017-09-20T08:47:35.716Z,13.07
2017-09-20T08:49:36.653Z,12.50
2017-09-20T08:51:38.359Z,14.27
2017-09-20T08:53:39.313Z,14.37
2017-09-20T08:55:40.290Z,15.43
2017-09-20T08:57:41.232Z,13.67
2017-09-20T08:59:42.173Z,11.83
2017-09-20T09:01:43.130Z,12.27
2017-09-20T09:03:44.805Z,10.47
2017-09-20T09:05:46.500Z,9.83
2017-09-20T09:07:47.460Z,12.07
2017-09-20T09:09:48.422Z,10.90
2017-09-20T09:11:49.373Z,12.60
2017-09-20T09:13:50.338Z,11.67
2017-09-20T09:15:51.294Z,11.63
2017-09-20T09:17:52.984Z,12.97
2017-09-20T09:19:54.672Z,12.70
2017-09-20T09:21:55.673Z,10.17
2017-09-20T09:23:57.367Z,10.30
2017-09-20T09:25:58.320Z,11.17
2017-09-20T09:27:59.295Z,9.80
2017-09-20T09:30:00.260Z,10.77
2017-09-20T09:32:01.961Z,9.87
2017-09-20T09:34:02.909Z,9.00
2017-09-20T09:36:03.885Z,8.70
2017-09-20T09:38:04.833Z,9.50
2017-09-20T09:40:05.800Z,8.60
2017-09-20T09:42:06.756Z,8.90
2017-09-20T09:44:08.461Z,7.87
2017-09-20T09:46:09.409Z,8.73
2017-09-20T09:48:10.365Z,8.23
2017-09-20T09:50:11.322Z,8.27
2017-09-20T09:52:12.285Z,8.13
2017-09-20T09:54:13.232Z,9.83
2017-09-20T09:56:14.181Z,8.68
2017-09-20T09:58:15.876Z,7.80
2017-09-20T10:00:16.824Z,8.37
2017-09-20T10:02:17.781Z,9.30
2017-09-20T10:04:18.719Z,8.93
2017-09-20T10:06:19.668Z,7.87
2017-09-20T10:08:20.625Z,8.93
2017-09-20T10:10:21.585Z,5.43
2017-09-20T10:12:22.539Z,6.80
2017-09-20T10:14:23.498Z,5.60
2017-09-20T10:16:24.442Z,5.13
2017-09-20T10:18:25.398Z,4.93
2017-09-20T10:20:26.349Z,5.60
2017-09-20T10:22:27.306Z,5.07
2017-09-20T10:24:28.992Z,5.20
2017-09-20T10:26:29.933Z,4.90
2017-09-20T10:28:30.885Z,5.83
2017-09-20T10:30:31.833Z,6.20
2017-09-20T10:32:32.776Z,6.27
2017-09-20T10:34:33.732Z,6.60
2017-09-20T10:36:34.693Z,7.17
2017-09-20T10:38:35.647Z,7.10
2017-09-20T10:40:36.600Z,7.80
2017-09-20T10:42:37.555Z,6.87
2017-09-20T10:44:38.524Z,8.00
2017-09-20T10:46:40.229Z,7.73
2017-09-20T10:48:41.186Z,7.10
2017-09-20T10:50:42.900Z,7.53
2017-09-20T10:52:44.598Z,7.40
2017-09-20T10:54:45.557Z,7.80
2017-09-20T10:56:46.511Z,8.43
2017-09-20T10:58:47.472Z,7.17
2017-09-20T11:00:48.421Z,8.57
2017-09-20T11:02:49.360Z,7.80
2017-09-20T11:04:50.316Z,8.20
2017-09-20T11:06:51.262Z,7.57
2017-09-20T11:08:52.207Z,8.00
2017-09-20T11:10:53.156Z,7.80
2017-09-20T11:12:54.110Z,7.70
2017-09-20T11:14:55.797Z,8.27
2017-09-20T11:16:56.758Z,7.53
2017-09-20T11:18:57.720Z,7.77
2017-09-20T11:20:58.673Z,8.70
2017-09-20T11:22:59.628Z,7.00
2017-09-20T11:25:00.585Z,6.80
2017-09-20T11:27:01.577Z,6.77
2017-09-20T11:29:02.541Z,6.37
2017-09-20T11:31:03.492Z,6.30
2017-09-20T11:33:04.440Z,6.57
2017-09-20T11:35:05.388Z,5.80
2017-09-20T11:37:06.340Z,7.17
2017-09-20T11:39:07.300Z,6.27
2017-09-20T11:41:08.245Z,5.90
2017-09-20T11:43:09.193Z,5.70
2017-09-20T11:45:10.140Z,6.00
2017-09-20T11:47:11.106Z,6.17
2017-09-20T11:49:12.790Z,6.27
2017-09-20T11:51:13.736Z,6.20
2017-09-20T11:53:14.672Z,6.20
2017-09-20T11:55:16.371Z,7.07
2017-09-20T11:57:17.327Z,7.43
2017-09-20T11:59:18.353Z,6.10
2017-09-20T12:01:19.316Z,6.57
2017-09-20T12:03:20.265Z,6.77
2017-09-20T12:05:21.224Z,6.33
2017-09-20T12:07:22.176Z,6.83
2017-09-20T12:09:23.149Z,6.83
2017-09-20T12:11:24.853Z,7.60
2017-09-20T12:13:25.805Z,7.73
2017-09-20T12:15:26.773Z,8.90
2017-09-20T12:17:27.721Z,8.90
2017-09-20T12:19:28.680Z,9.73
2017-09-20T12:21:29.654Z,9.73
2017-09-20T12:23:30.617Z,8.77
2017-09-20T12:25:31.573Z,8.23
2017-09-20T12:27:32.533Z,9.13
2017-09-20T12:29:33.476Z,8.60
2017-09-20T12:31:34.446Z,8.20
2017-09-20T12:33:35.409Z,7.67
2017-09-20T12:35:37.105Z,7.13
2017-09-20T12:37:38.077Z,8.43
2017-09-20T12:39:39.026Z,7.97
2017-09-20T12:41:40.007Z,8.80
2017-09-20T12:43:41.705Z,8.73
2017-09-20T12:45:42.669Z,8.13
2017-09-20T12:47:43.644Z,7.87
2017-09-20T12:49:44.609Z,9.07
2017-09-20T12:51:46.320Z,9.10
2017-09-20T12:53:47.285Z,8.83
2017-09-20T12:55:48.250Z,9.40
2017-09-20T12:57:49.321Z,9.60
2017-09-20T12:59:54.192Z,8.60
2017-09-20T13:01:55.273Z,8.93
2017-09-20T13:03:56.229Z,8.90
2017-09-20T13:05:57.188Z,8.20
2017-09-20T13:07:58.913Z,7.77
2017-09-20T13:09:59.860Z,8.10
2017-09-20T13:12:00.832Z,9.57
2017-09-20T13:14:04.261Z,8.73
2017-09-20T13:16:05.948Z,7.93
2017-09-20T13:18:06.896Z,8.57
2017-09-20T13:20:07.838Z,8.10
2017-09-20T13:22:09.750Z,8.13
2017-09-20T13:24:10.805Z,7.57
2017-09-20T13:26:11.763Z,7.83
2017-09-20T13:28:13.469Z,9.10
2017-09-20T13:30:14.425Z,8.00
2017-09-20T13:32:15.384Z,8.67
2017-09-20T13:34:16.414Z,8.43
2017-09-20T13:36:17.352Z,8.57
2017-09-20T13:38:18.304Z,8.00
2017-09-20T13:40:19.256Z,8.17
2017-09-20T13:42:20.204Z,8.60
2017-09-20T13:44:21.900Z,8.87
2017-09-20T13:46:22.849Z,8.50
2017-09-20T13:48:23.801Z,8.80
2017-09-20T13:50:25.513Z,9.17
2017-09-20T13:52:26.474Z,8.20
2017-09-20T13:54:27.449Z,8.37
2017-09-20T13:56:28.383Z,8.90
2017-09-20T13:58:29.334Z,9.40
2017-09-20T14:00:30.303Z,9.00
2017-09-20T14:02:31.992Z,9.33
2017-09-20T14:04:32.948Z,8.97
2017-09-20T14:06:33.892Z,9.33
2017-09-20T14:08:34.852Z,10.40
2017-09-20T14:10:35.873Z,9.80
2017-09-20T14:12:36.833Z,11.07
2017-09-20T14:14:37.810Z,11.37
2017-09-20T14:16:38.757Z,12.30
2017-09-20T14:18:39.712Z,11.33
2017-09-20T14:20:40.657Z,11.47
2017-09-20T14:22:41.618Z,11.65
2017-09-20T14:24:43.308Z,12.10
2017-09-20T14:26:44.259Z,11.17
2017-09-20T14:28:45.217Z,11.77
2017-09-20T14:30:46.164Z,11.57
2017-09-20T14:32:47.118Z,11.13
2017-09-20T14:34:48.070Z,11.47
2017-09-20T14:36:49.021Z,12.13
2017-09-20T14:38:49.968Z,12.57
2017-09-20T14:40:50.925Z,14.10
2017-09-20T14:42:51.889Z,13.90
2017-09-20T14:44:53.621Z,14.67
2017-09-20T14:46:54.561Z,14.33
2017-09-20T14:48:55.507Z,13.20
2017-09-20T14:50:56.468Z,13.87
2017-09-20T14:52:57.414Z,13.97
2017-09-20T14:54:58.372Z,14.30
2017-09-20T14:56:59.312Z,16.03
2017-09-20T14:59:00.293Z,16.17
2017-09-20T15:01:01.244Z,16.10
2017-09-20T15:03:02.189Z,14.40
2017-09-20T15:05:03.148Z,14.40
2017-09-20T15:07:04.092Z,15.77
2017-09-20T15:09:05.032Z,14.70
2017-09-20T15:11:06.221Z,14.50
2017-09-20T15:13:07.160Z,15.00
2017-09-20T15:15:08.117Z,15.77
2017-09-20T15:17:09.080Z,14.83
2017-09-20T15:19:10.024Z,14.67
2017-09-20T15:21:10.968Z,17.27
2017-09-20T15:23:11.932Z,17.23
2017-09-20T15:25:13.666Z,16.27
2017-09-20T15:27:14.627Z,15.20
2017-09-20T15:29:15.714Z,16.23
2017-09-20T15:31:16.673Z,17.70
2017-09-20T15:33:17.627Z,16.70
2017-09-20T15:35:18.576Z,18.13
2017-09-20T15:37:19.524Z,18.00
2017-09-20T15:39:20.483Z,19.17
2017-09-20T15:41:21.461Z,18.60
2017-09-20T15:43:23.152Z,17.63
2017-09-20T15:45:24.095Z,16.60
2017-09-20T15:47:25.033Z,18.00
2017-09-20T15:49:25.977Z,20.13
2017-09-20T15:51:26.955Z,19.03
2017-09-20T15:53:28.005Z,18.20
2017-09-20T15:55:28.964Z,18.30
2017-09-20T15:57:29.924Z,18.90
2017-09-20T15:59:30.872Z,19.30
2017-09-20T16:01:31.824Z,19.87
2017-09-20T16:03:32.777Z,19.60
2017-09-20T16:05:34.462Z,19.57
2017-09-20T16:07:35.420Z,19.63
2017-09-20T16:09:36.364Z,21.80
2017-09-20T16:11:37.333Z,19.57
2017-09-20T16:13:38.277Z,19.87
2017-09-20T16:15:39.229Z,21.20
2017-09-20T16:17:40.209Z,20.07
2017-09-20T16:19:41.160Z,23.13
2017-09-20T16:21:42.850Z,24.27
2017-09-20T16:23:43.836Z,23.50
2017-09-20T16:25:44.776Z,21.77
2017-09-20T16:27:50.605Z,22.70
2017-09-20T16:29:51.618Z,22.20
2017-09-20T16:31:53.316Z,24.23
2017-09-20T16:33:54.271Z,21.60
2017-09-20T16:35:55.272Z,21.77
2017-09-20T16:37:56.233Z,23.47
2017-09-20T16:39:57.929Z,22.03
2017-09-20T16:41:58.905Z,21.47
2017-09-20T16:43:59.849Z,23.07
2017-09-20T16:46:00.793Z,23.83
2017-09-20T16:48:01.736Z,23.43
2017-09-20T16:50:03.437Z,23.87
2017-09-20T16:52:05.167Z,23.33
2017-09-20T16:54:06.129Z,24.07
2017-09-20T16:56:07.085Z,24.60
2017-09-20T16:58:08.067Z,24.97
2017-09-20T17:00:09.114Z,23.63
2017-09-20T17:02:10.077Z,24.03
2017-09-20T17:04:11.015Z,26.10
2017-09-20T17:06:11.960Z,24.90
2017-09-20T17:08:12.970Z,26.93
2017-09-20T17:10:14.696Z,24.97
2017-09-20T17:12:15.732Z,24.93
2017-09-20T17:14:16.792Z,24.50
2017-09-20T17:16:17.732Z,25.00
2017-09-20T17:18:18.704Z,24.13
2017-09-20T17:20:19.653Z,24.13
2017-09-20T17:22:20.637Z,24.73
2017-09-20T17:24:22.337Z,25.73
2017-09-20T17:26:23.289Z,25.50
2017-09-20T17:28:24.246Z,24.23
2017-09-20T17:30:25.192Z,23.57
2017-09-20T17:32:26.140Z,23.90
2017-09-20T17:34:27.133Z,27.00
2017-09-20T17:36:28.153Z,27.90
2017-09-20T17:38:29.846Z,27.83
2017-09-20T17:40:31.613Z,28.00
2017-09-20T17:42:32.573Z,29.17
2017-09-20T17:44:33.533Z,27.87
2017-09-20T17:46:34.499Z,28.10
2017-09-20T17:48:35.444Z,27.03
2017-09-20T17:50:37.142Z,28.23
2017-09-20T17:52:38.149Z,27.83
2017-09-20T17:54:39.105Z,28.40
2017-09-20T17:56:40.044Z,27.17
2017-09-20T17:58:40.993Z,28.70
2017-09-20T18:00:41.945Z,29.17
2017-09-20T18:02:42.892Z,28.37
2017-09-20T18:04:43.840Z,29.83
2017-09-20T18:06:44.844Z,30.00
2017-09-20T18:08:45.789Z,29.37
2017-09-20T18:10:46.768Z,29.93
2017-09-20T18:12:47.723Z,28.70
2017-09-20T18:14:48.677Z,28.93
2017-09-20T18:16:50.401Z,30.50
2017-09-20T18:18:51.363Z,31.30
2017-09-20T18:20:52.433Z,31.50
2017-09-20T18:22:54.121Z,31.37
2017-09-20T18:24:55.168Z,31.50
2017-09-20T18:26:56.112Z,31.33
2017-09-20T18:28:57.053Z,29.93
2017-09-20T18:30:58.001Z,32.80
2017-09-20T18:32:59.008Z,31.33
2017-09-20T18:35:00.006Z,32.97
2017-09-20T18:37:00.949Z,31.30
2017-09-20T18:39:01.919Z,32.50
2017-09-20T18:41:02.872Z,31.23
2017-09-20T18:43:03.829Z,31.70
2017-09-20T18:45:04.788Z,33.20
2017-09-20T18:47:05.757Z,32.97
2017-09-20T18:49:07.477Z,32.50
2017-09-20T18:51:08.449Z,32.63
2017-09-20T18:53:09.394Z,33.13
2017-09-20T18:55:10.340Z,34.30
2017-09-20T18:57:11.289Z,32.07
2017-09-20T18:59:12.237Z,33.00
2017-09-20T19:01:13.195Z,32.67
2017-09-20T19:03:14.873Z,31.80
2017-09-20T19:05:15.821Z,33.87
2017-09-20T19:07:16.778Z,32.33
2017-09-20T19:09:17.729Z,33.87
2017-09-20T19:11:18.684Z,33.13
2017-09-20T19:13:19.628Z,32.13
2017-09-20T19:15:20.584Z,33.03
2017-09-20T19:17:21.546Z,32.00
2017-09-20T19:19:22.504Z,34.90
2017-09-20T19:21:23.474Z,32.00
2017-09-20T19:23:25.184Z,32.83
2017-09-20T19:25:26.137Z,32.17
2017-09-20T19:27:27.097Z,33.20
2017-09-20T19:29:28.056Z,32.93
2017-09-20T19:31:29.018Z,33.70
2017-09-20T19:33:30.719Z,34.60
2017-09-20T19:35:31.673Z,34.20
2017-09-20T19:37:32.632Z,33.07
2017-09-20T19:39:34.419Z,32.00
2017-09-20T19:41:35.373Z,31.13
2017-09-20T19:43:37.073Z,29.60
2017-09-20T19:45:38.040Z,33.33
2017-09-20T19:47:38.996Z,35.55
2017-09-20T19:49:39.943Z,34.27
2017-09-20T19:51:40.905Z,33.07
2017-09-20T19:53:41.864Z,32.13
2017-09-20T19:55:43.558Z,32.77
2017-09-20T19:57:44.532Z,31.90
2017-09-20T19:59:45.487Z,31.37
2017-09-20T20:01:46.449Z,31.13
2017-09-20T20:03:47.402Z,32.80
2017-09-20T20:05:48.362Z,30.57
2017-09-20T20:07:50.057Z,30.57
2017-09-20T20:09:51.009Z,29.53
2017-09-20T20:11:51.969Z,32.75
2017-09-20T20:13:52.936Z,33.07
2017-09-20T20:15:53.938Z,33.43
2017-09-20T20:17:54.893Z,30.20
2017-09-20T20:19:55.845Z,31.03
2017-09-20T20:21:58.731Z,31.73
2017-09-20T20:23:59.697Z,30.40
2017-09-20T20:26:00.643Z,31.60
2017-09-20T20:28:01.604Z,31.50
2017-09-20T20:30:02.569Z,33.77
2017-09-20T20:32:04.265Z,29.20
2017-09-20T20:34:05.298Z,31.07
2017-09-20T20:36:06.261Z,24.10
2017-09-20T20:38:07.222Z,25.00
2017-09-20T20:40:08.188Z,25.13
2017-09-20T20:42:09.151Z,24.10
2017-09-20T20:44:10.113Z,27.23
2017-09-20T20:46:11.812Z,26.20
2017-09-20T20:48:12.765Z,28.53
2017-09-20T20:50:13.735Z,32.60
2017-09-20T20:52:15.421Z,27.60
2017-09-20T20:54:16.397Z,27.87
2017-09-20T20:56:17.360Z,27.63
2017-09-20T20:58:18.316Z,28.13
2017-09-20T21:00:19.290Z,26.57
2017-09-20T21:02:20.253Z,25.93
2017-09-20T21:04:21.217Z,23.83
2017-09-20T21:06:22.923Z,21.27
2017-09-20T21:08:24.620Z,23.13
2017-09-20T21:10:25.593Z,28.83
2017-09-20T21:12:26.541Z,31.10
2017-09-20T21:14:27.509Z,33.47
2017-09-20T21:16:28.457Z,37.23
2017-09-20T21:18:29.410Z,37.30
2017-09-20T21:20:30.372Z,37.67
2017-09-20T21:22:32.087Z,32.37
2017-09-20T21:24:33.061Z,31.87
2017-09-20T21:26:34.013Z,30.77
2017-09-20T21:28:34.964Z,29.00
2017-09-20T21:30:35.925Z,28.63
2017-09-20T21:32:36.882Z,29.53
2017-09-20T21:34:37.841Z,31.03
2017-09-20T21:36:39.537Z,32.03
2017-09-20T21:38:40.488Z,33.30
2017-09-20T21:40:41.445Z,34.57
2017-09-20T21:42:42.404Z,28.90
2017-09-20T21:44:43.369Z,31.07
2017-09-20T21:46:44.312Z,34.30
2017-09-20T21:48:45.268Z,32.97
2017-09-20T21:50:46.233Z,26.50
2017-09-20T21:52:47.946Z,31.50
2017-09-20T21:54:48.981Z,30.27
2017-09-20T21:56:49.937Z,30.00
2017-09-20T21:58:50.903Z,27.20
2017-09-20T22:00:51.858Z,25.17
2017-09-20T22:02:52.819Z,29.20
2017-09-20T22:04:54.522Z,26.20
2017-09-20T22:06:55.477Z,26.67
2017-09-20T22:08:56.432Z,24.93
2017-09-20T22:10:57.392Z,30.17
2017-09-20T22:12:58.338Z,28.10
2017-09-20T22:15:11.560Z,27.97
2017-09-20T22:17:24.976Z,25.73
2017-09-20T22:19:38.364Z,16.03
2017-09-20T22:21:51.884Z,17.30
2017-09-20T22:24:05.322Z,20.60
2017-09-20T22:26:18.776Z,20.50
2017-09-20T22:28:19.803Z,19.53
2017-09-20T22:30:20.757Z,19.37
2017-09-20T22:32:21.718Z,18.83
2017-09-20T22:34:22.673Z,19.87
2017-09-20T22:36:23.629Z,21.87
2017-09-20T22:38:25.338Z,24.73
2017-09-20T22:40:26.301Z,22.90
2017-09-20T22:42:27.277Z,21.97
2017-09-20T22:44:28.988Z,17.33
2017-09-20T22:46:29.949Z,26.13
2017-09-20T22:48:30.908Z,25.20
2017-09-20T22:50:31.877Z,24.97
2017-09-20T22:52:33.589Z,26.40
2017-09-20T22:54:34.551Z,25.87
2017-09-20T22:56:35.512Z,22.73
2017-09-20T22:58:36.471Z,23.00
2017-09-20T23:00:37.420Z,21.50
2017-09-20T23:02:38.376Z,23.60
2017-09-20T23:04:40.069Z,23.50
2017-09-20T23:06:41.020Z,26.13
2017-09-20T23:08:41.981Z,25.00
2017-09-20T23:10:42.929Z,15.30
2017-09-20T23:12:43.877Z,21.37
2017-09-20T23:14:44.832Z,19.23
2017-09-20T23:16:45.786Z,20.90
2017-09-20T23:18:46.738Z,19.50
2017-09-20T23:20:47.686Z,17.00
2017-09-20T23:22:48.640Z,15.13
2017-09-20T23:30:01.723Z,20.20
2017-09-20T23:32:02.675Z,20.60
2017-09-20T23:34:04.400Z,19.20
2017-09-20T23:36:05.360Z,22.33
2017-09-20T23:38:06.317Z,22.03
2017-09-20T23:40:07.276Z,25.43
2017-09-20T23:42:08.980Z,21.13
2017-09-20T23:44:09.968Z,20.80
2017-09-20T23:46:10.920Z,18.80
2017-09-20T23:48:11.877Z,21.33
2017-09-20T23:50:12.843Z,21.60
2017-09-20T23:52:13.789Z,22.83
2017-09-20T23:54:14.746Z,20.55
2017-09-20T23:56:15.704Z,22.17
2017-09-20T23:58:16.653Z,23.77
